Impacts METAR Board
IDs:

KDFW - Dallas-Ft Worth Intl, TX, US

Updated at: 2200 UTC 19 Jun 2018
Potential Impact None Slight Moderate High
Time 19/10Z 19/11Z 19/12Z 19/13Z 19/14Z 19/15Z 19/16Z 19/17Z 19/18Z 19/19Z 19/20Z 19/21Z 19/22Z
Temp73 73 73 74 77 78 80 81 82 83 85 83 82
Dewpt73 73 73 73 72 72 71 70 70 70 71 71 72
Altim29.95 29.96 29.97 29.97 29.98 29.97 29.96 29.96 29.95 29.93 29.91 29.89 29.89
VIS6 10 10 10 10 10 10 10 10 10 10 10 10
CIG7 28 16 50 11 15 21 33 40 39 60 65 60
CoverOVCBKNBKNBKNBKNOVCBKNOVCBKNBKNBKNBKNBKN
FltCatIFRMVFRMVFRVFRMVFRMVFRMVFRVFRVFRVFRVFRVFRVFR
WXBR------------------------
WDir140140120130130120130130130150110150140
WSpd7 6 7 11 10 13 12 12 13 11 7 10 9
WGst-- -- -- -- 17 -- -- 17 19 -- -- -- --
Raw hourly METARs
KDFW 190953Z 14007KT 6SM BR BKN007 BKN011 OVC018 23/23 A2995 RMK AO2 RAB22E46 CIG 003V008 SLP133 P0002 T02280228
KDFW 191053Z 14006KT 10SM SCT021 BKN028 BKN046 23/23 A2996 RMK AO2 RAB06E15 SLP135 P0000 T02280228
KDFW 191153Z 12007KT 10SM BKN016 BKN020 BKN300 23/23 A2997 RMK AO2 SLP139 60002 70002 T02280228 10250 20228 51008
KDFW 191253Z 13011KT 10SM FEW009 SCT021 BKN050 BKN250 23/23 A2997 RMK AO2 SLP141 T02330228
KDFW 191353Z COR 13010G17KT 10SM BKN011 BKN250 25/22 A2998 RMK AO2 SLP142 T02500222
KDFW 191453Z 12013KT 10SM BKN015 OVC023 26/22 A2997 RMK AO2 SLP142 T02560222 50003
KDFW 191553Z 13012KT 10SM BKN021 BKN027 27/22 A2996 RMK AO2 SLP138 T02670217
KDFW 191653Z 13012G17KT 10SM SCT027 OVC033 27/21 A2996 RMK AO2 SLP137 T02720211
KDFW 191753Z 13013G19KT 10SM SCT027 BKN040 28/21 A2995 RMK AO2 SLP133 T02780211 10289 20228 58009
KDFW 191853Z 15011KT 10SM SCT029 BKN039 28/21 A2993 RMK AO2 SLP126 T02830211
KDFW 191953Z 11007KT 080V170 10SM FEW029 SCT042 BKN060TCU 29/22 A2991 RMK AO2 RAB17E31 SLP120 SHRA DSNT SW-NW TCU ALQDS P0000 T02940217
KDFW 192053Z 15010KT 10SM FEW036 BKN065TCU BKN120 28/22 A2989 RMK AO2 RAB01E14 SLP114 SHRA DSNT NE S W TCU ALQDS P0003 60003 T02830217 58019
KDFW 192153Z 14009KT 10SM FEW032 BKN060TCU BKN090 28/22 A2989 RMK AO2 RAB22E37 SLP113 SHRA DSNT S NW TCU ALDS P0000 T02780222



Page loaded:  22:07 UTC  |   03:07 PM Pacific  |   04:07 PM Mountain  |   05:07 PM Central  |   06:07 PM Eastern

 

ADVISORIES

FORECASTS

FORECASTS

OBSERVATIONS

USER TOOLS

ABOUT US